createdAt,value
2023-03-29T00:01:11.813Z,50.30
2023-03-29T00:04:02.667Z,50.30
2023-03-29T00:06:32.844Z,50.30
2023-03-29T00:09:01.588Z,50.30
2023-03-29T00:11:29.296Z,50.40
2023-03-29T00:13:56.987Z,50.40
2023-03-29T00:16:24.684Z,50.40
2023-03-29T00:18:52.368Z,50.50
2023-03-29T00:21:21.338Z,50.50
2023-03-29T00:23:49.002Z,50.50
2023-03-29T00:26:16.673Z,50.50
2023-03-29T00:28:44.345Z,50.50
2023-03-29T00:31:13.031Z,50.50
2023-03-29T00:33:41.277Z,50.60
2023-03-29T00:36:10.230Z,50.60
2023-03-29T00:38:39.716Z,50.60
2023-03-29T00:41:07.870Z,50.70
2023-03-29T00:43:54.276Z,50.60
2023-03-29T00:46:22.071Z,50.70
2023-03-29T00:48:50.442Z,50.60
2023-03-29T00:51:18.843Z,50.60
2023-03-29T00:53:49.635Z,50.70
2023-03-29T00:56:19.434Z,50.80
2023-03-29T00:58:48.940Z,50.70
2023-03-29T01:01:19.316Z,50.70
2023-03-29T01:03:50.442Z,50.70
2023-03-29T01:06:18.788Z,50.80
2023-03-29T01:08:49.584Z,50.80
2023-03-29T01:11:18.881Z,50.80
2023-03-29T01:13:47.847Z,50.80
2023-03-29T01:16:15.611Z,50.90
2023-03-29T01:18:43.693Z,50.90
2023-03-29T01:21:17.249Z,50.90
2023-03-29T01:24:37.869Z,50.90
2023-03-29T01:27:11.265Z,51.00
2023-03-29T01:29:41.078Z,51.00
2023-03-29T01:32:09.828Z,51.00
2023-03-29T01:34:39.784Z,51.00
2023-03-29T01:37:10.049Z,51.00
2023-03-29T01:39:37.760Z,51.00
2023-03-29T01:42:21.977Z,51.10
2023-03-29T01:44:53.927Z,51.10
2023-03-29T01:47:26.151Z,51.10
2023-03-29T01:49:57.948Z,51.10
2023-03-29T01:52:26.498Z,51.10
2023-03-29T01:54:55.798Z,51.20
2023-03-29T01:57:24.970Z,51.10
2023-03-29T01:59:54.211Z,51.20
2023-03-29T02:02:21.973Z,51.20
2023-03-29T02:04:51.695Z,51.10
2023-03-29T02:07:21.371Z,51.10
2023-03-29T02:09:49.387Z,51.20
2023-03-29T02:12:17.068Z,51.20
2023-03-29T02:14:45.252Z,51.20
2023-03-29T02:17:22.088Z,51.20
2023-03-29T02:19:51.015Z,51.30
2023-03-29T02:22:22.020Z,51.30
2023-03-29T02:24:50.027Z,51.30
2023-03-29T02:27:17.848Z,51.30
2023-03-29T02:29:46.823Z,51.30
2023-03-29T02:32:17.509Z,51.30
2023-03-29T02:34:47.658Z,51.90
2023-03-29T02:37:17.855Z,51.30
2023-03-29T02:39:47.594Z,51.30
2023-03-29T02:42:16.955Z,51.30
2023-03-29T02:44:46.193Z,51.30
2023-03-29T02:47:16.150Z,51.20
2023-03-29T02:49:43.927Z,51.30
2023-03-29T02:52:14.743Z,51.30
2023-03-29T02:54:43.336Z,51.20
2023-03-29T02:57:11.205Z,51.30
2023-03-29T02:59:40.761Z,51.30
2023-03-29T03:02:08.530Z,51.30
2023-03-29T03:04:36.470Z,51.30
2023-03-29T03:07:05.607Z,51.40
2023-03-29T03:09:35.426Z,51.40
2023-03-29T03:12:03.136Z,51.40
2023-03-29T03:14:31.104Z,51.40
2023-03-29T03:17:03.124Z,51.30
2023-03-29T03:19:32.284Z,52.00
2023-03-29T03:22:00.033Z,51.40
2023-03-29T03:24:28.612Z,51.40
2023-03-29T03:26:58.456Z,51.40
2023-03-29T03:29:26.142Z,51.40
2023-03-29T03:32:13.417Z,51.40
2023-03-29T03:34:59.808Z,51.40
2023-03-29T03:37:28.461Z,51.40
2023-03-29T03:39:56.601Z,51.50
2023-03-29T03:42:28.070Z,51.50
2023-03-29T03:44:55.812Z,51.50
2023-03-29T03:47:42.306Z,51.40
2023-03-29T03:50:21.255Z,51.50
2023-03-29T03:52:49.258Z,51.50
2023-03-29T03:55:17.031Z,51.50
2023-03-29T03:57:53.519Z,51.50
2023-03-29T04:00:23.194Z,51.50
2023-03-29T04:03:09.226Z,51.50
2023-03-29T04:05:40.073Z,51.60
2023-03-29T04:08:08.056Z,51.60
2023-03-29T04:10:56.736Z,51.60
2023-03-29T04:13:30.828Z,51.60
2023-03-29T04:16:18.062Z,51.60
2023-03-29T04:18:46.083Z,51.60
2023-03-29T04:21:13.806Z,51.60
2023-03-29T04:23:42.890Z,51.70
2023-03-29T04:26:12.007Z,51.70
2023-03-29T04:28:49.993Z,51.70
2023-03-29T04:31:22.723Z,51.70
2023-03-29T04:34:13.660Z,51.70
2023-03-29T04:36:41.431Z,51.70
2023-03-29T04:39:17.889Z,51.70
2023-03-29T04:41:48.410Z,51.70
2023-03-29T04:44:22.663Z,51.70
2023-03-29T04:46:50.790Z,51.70
2023-03-29T04:49:46.887Z,51.70
2023-03-29T04:52:24.389Z,51.80
2023-03-29T04:54:53.281Z,51.80
2023-03-29T04:57:39.620Z,51.70
2023-03-29T05:00:16.863Z,51.80
2023-03-29T05:03:05.905Z,51.80
2023-03-29T05:05:37.379Z,51.80
2023-03-29T05:08:05.418Z,51.90
2023-03-29T05:10:59.204Z,51.80
2023-03-29T05:13:28.743Z,51.90
2023-03-29T05:15:58.106Z,51.90
2023-03-29T05:18:26.154Z,51.90
2023-03-29T05:20:54.038Z,51.90
2023-03-29T05:23:22.554Z,51.90
2023-03-29T05:26:22.473Z,51.90
2023-03-29T05:28:53.451Z,52.00
2023-03-29T05:31:22.813Z,52.00
2023-03-29T05:33:54.597Z,52.00
2023-03-29T05:36:23.363Z,52.00
2023-03-29T05:38:51.696Z,52.00
2023-03-29T05:41:22.680Z,52.00
2023-03-29T05:44:22.788Z,52.10
2023-03-29T05:46:57.167Z,52.00
2023-03-29T05:49:25.434Z,52.00
2023-03-29T05:52:07.524Z,52.00
2023-03-29T05:54:36.690Z,52.00
2023-03-29T05:57:06.329Z,52.00
2023-03-29T05:59:34.616Z,52.10
2023-03-29T06:02:04.903Z,52.00
2023-03-29T06:04:35.795Z,52.10
2023-03-29T06:07:24.298Z,52.00
2023-03-29T06:10:15.620Z,52.00
2023-03-29T06:12:49.346Z,52.00
2023-03-29T06:15:18.652Z,52.00
2023-03-29T06:17:52.963Z,52.10
2023-03-29T06:20:21.454Z,52.00
2023-03-29T06:22:54.001Z,52.00
2023-03-29T06:25:24.882Z,52.00
2023-03-29T06:27:52.930Z,52.00
2023-03-29T06:30:21.840Z,52.00
2023-03-29T06:32:55.491Z,52.10
2023-03-29T06:35:48.383Z,52.10
2023-03-29T06:38:20.727Z,52.10
2023-03-29T06:41:11.047Z,52.10
2023-03-29T06:44:10.944Z,52.10
2023-03-29T06:46:51.250Z,52.20
2023-03-29T06:49:20.662Z,52.20
2023-03-29T06:52:14.490Z,52.20
2023-03-29T06:54:43.333Z,52.20
2023-03-29T06:57:13.272Z,52.20
2023-03-29T06:59:41.209Z,52.20
2023-03-29T07:02:22.634Z,52.30
2023-03-29T07:04:58.064Z,52.20
2023-03-29T07:07:53.601Z,52.30
2023-03-29T07:10:42.256Z,52.30
2023-03-29T07:13:22.340Z,52.30
2023-03-29T07:15:51.408Z,52.30
2023-03-29T07:18:34.473Z,52.30
2023-03-29T07:21:04.767Z,52.30
2023-03-29T07:23:32.713Z,52.30
2023-03-29T07:26:01.238Z,52.30
2023-03-29T07:28:29.220Z,52.30
2023-03-29T07:31:03.273Z,52.30
2023-03-29T07:33:31.992Z,52.30
2023-03-29T07:36:04.897Z,52.30
2023-03-29T07:38:32.934Z,52.30
2023-03-29T07:41:08.991Z,52.30
2023-03-29T07:43:48.199Z,52.30
2023-03-29T07:46:21.781Z,52.40
2023-03-29T07:48:50.623Z,52.30
2023-03-29T07:51:19.692Z,52.40
2023-03-29T07:53:54.032Z,52.30
2023-03-29T07:56:49.453Z,52.40
2023-03-29T07:59:32.714Z,52.40
2023-03-29T08:02:13.874Z,52.40
2023-03-29T08:04:48.037Z,52.40
2023-03-29T08:07:20.956Z,52.40
2023-03-29T08:10:22.296Z,52.40
2023-03-29T08:13:05.940Z,52.40
2023-03-29T08:15:46.223Z,52.40
2023-03-29T08:18:23.957Z,52.40
2023-03-29T08:20:52.588Z,52.40
2023-03-29T08:23:21.683Z,52.40
2023-03-29T08:26:08.613Z,52.40
2023-03-29T08:28:36.564Z,52.40
2023-03-29T08:31:04.579Z,52.40
2023-03-29T08:33:32.773Z,52.40
2023-03-29T08:36:26.598Z,52.40
2023-03-29T08:38:58.313Z,52.40
2023-03-29T08:41:34.087Z,52.40
2023-03-29T08:44:10.766Z,52.30
2023-03-29T08:46:59.757Z,52.30
2023-03-29T08:49:36.506Z,52.30
2023-03-29T08:52:06.410Z,52.30
2023-03-29T08:54:42.113Z,52.40
2023-03-29T08:57:13.249Z,52.30
2023-03-29T08:59:52.315Z,52.30
2023-03-29T09:02:23.265Z,52.30
2023-03-29T09:04:59.937Z,52.30
2023-03-29T09:07:48.029Z,52.30
2023-03-29T09:10:18.931Z,52.40
2023-03-29T09:12:55.470Z,52.40
2023-03-29T09:15:24.866Z,52.30
2023-03-29T09:18:25.918Z,52.40
2023-03-29T09:20:56.959Z,52.40
2023-03-29T09:23:52.736Z,52.30
2023-03-29T09:26:38.702Z,52.20
2023-03-29T09:29:32.167Z,52.40
2023-03-29T09:32:00.061Z,52.30
2023-03-29T09:34:30.744Z,52.30
2023-03-29T09:37:03.894Z,52.30
2023-03-29T09:39:31.965Z,52.30
2023-03-29T09:42:11.907Z,52.20
2023-03-29T09:44:43.676Z,52.20
2023-03-29T09:47:19.498Z,52.20
2023-03-29T09:49:50.139Z,52.10
2023-03-29T09:52:18.153Z,52.10
2023-03-29T09:54:54.382Z,52.00
2023-03-29T09:57:41.346Z,52.00
2023-03-29T10:00:10.597Z,52.00
2023-03-29T10:02:52.552Z,51.90
2023-03-29T10:05:25.532Z,51.80
2023-03-29T10:07:54.703Z,51.80
2023-03-29T10:10:23.854Z,51.90
2023-03-29T10:12:53.841Z,51.80
2023-03-29T10:17:57.769Z,51.90
2023-03-29T10:20:25.642Z,51.90
2023-03-29T10:22:56.584Z,52.00
2023-03-29T10:25:27.096Z,51.90
2023-03-29T10:27:57.422Z,52.00
2023-03-29T10:30:25.948Z,52.20
2023-03-29T10:32:57.829Z,52.10
2023-03-29T10:35:28.615Z,52.10
2023-03-29T10:37:57.498Z,52.10
2023-03-29T10:40:27.861Z,52.10
2023-03-29T10:42:59.165Z,52.10
2023-03-29T10:45:28.141Z,52.20
2023-03-29T10:47:56.838Z,52.20
2023-03-29T10:50:26.566Z,52.10
2023-03-29T10:52:54.294Z,52.10
2023-03-29T10:55:22.073Z,52.10
2023-03-29T10:57:56.900Z,52.00
2023-03-29T11:00:28.260Z,52.10
2023-03-29T11:03:15.630Z,52.00
2023-03-29T11:05:46.459Z,52.00
2023-03-29T11:08:22.523Z,51.90
2023-03-29T11:10:54.756Z,51.60
2023-03-29T11:13:24.496Z,51.50
2023-03-29T11:16:00.490Z,51.80
2023-03-29T11:18:51.545Z,51.80
2023-03-29T11:21:24.739Z,52.10
2023-03-29T11:23:57.988Z,52.30
2023-03-29T11:26:27.062Z,52.30
2023-03-29T11:28:57.599Z,52.50
2023-03-29T11:31:31.813Z,52.70
2023-03-29T11:34:06.660Z,52.60
2023-03-29T11:36:38.818Z,53.10
2023-03-29T11:39:11.323Z,54.00
2023-03-29T11:41:39.735Z,54.30
2023-03-29T11:44:10.268Z,54.10
2023-03-29T11:46:40.634Z,54.40
2023-03-29T11:49:12.240Z,54.20
2023-03-29T11:51:42.440Z,54.10
2023-03-29T11:54:14.912Z,53.80
2023-03-29T11:56:45.110Z,51.10
2023-03-29T11:59:14.761Z,50.20
2023-03-29T12:01:46.295Z,50.00
2023-03-29T12:04:17.587Z,49.60
2023-03-29T12:06:47.746Z,49.70
2023-03-29T12:09:23.760Z,51.10
2023-03-29T12:11:53.779Z,51.70
2023-03-29T12:14:22.921Z,52.20
2023-03-29T12:16:53.743Z,52.60
2023-03-29T12:19:23.757Z,53.00
2023-03-29T12:21:51.559Z,53.20
2023-03-29T12:24:20.724Z,53.40
2023-03-29T12:27:11.656Z,53.50
2023-03-29T12:29:46.563Z,54.20
2023-03-29T12:32:28.412Z,54.00
2023-03-29T12:35:15.184Z,54.70
2023-03-29T12:38:08.198Z,55.10
2023-03-29T12:40:55.753Z,54.30
2023-03-29T12:44:03.458Z,53.90
2023-03-29T12:46:54.330Z,53.80
2023-03-29T12:49:27.914Z,53.50
2023-03-29T12:51:56.125Z,52.90
2023-03-29T12:54:27.509Z,53.10
2023-03-29T12:56:58.049Z,52.90
2023-03-29T12:59:27.378Z,52.90
2023-03-29T13:01:59.607Z,53.10
2023-03-29T13:04:38.627Z,53.80
2023-03-29T13:07:06.987Z,54.30
2023-03-29T13:09:36.716Z,54.20
2023-03-29T13:12:09.333Z,54.30
2023-03-29T13:14:37.687Z,54.40
2023-03-29T13:17:17.677Z,54.50
2023-03-29T13:19:49.768Z,54.50
2023-03-29T13:22:23.516Z,54.00
2023-03-29T13:25:01.148Z,54.50
2023-03-29T13:27:34.136Z,54.90
2023-03-29T13:30:09.165Z,55.40
2023-03-29T13:32:47.047Z,55.40
2023-03-29T13:35:22.437Z,54.70
2023-03-29T13:37:56.971Z,54.90
2023-03-29T13:40:28.495Z,55.00
2023-03-29T13:42:59.272Z,55.10
2023-03-29T13:45:28.050Z,55.00
2023-03-29T13:48:05.412Z,54.50
2023-03-29T13:50:39.460Z,55.00
2023-03-29T13:53:11.570Z,55.40
2023-03-29T13:55:43.985Z,55.20
2023-03-29T13:58:13.305Z,54.70
2023-03-29T14:00:42.770Z,54.70
2023-03-29T14:03:12.827Z,55.70
2023-03-29T14:05:43.287Z,56.90
2023-03-29T14:08:15.678Z,57.30
2023-03-29T14:10:44.526Z,57.10
2023-03-29T14:13:13.587Z,57.80
2023-03-29T14:15:44.711Z,57.80
2023-03-29T14:18:12.914Z,59.20
2023-03-29T14:20:44.030Z,58.30
2023-03-29T14:23:14.340Z,59.50
2023-03-29T14:25:43.475Z,59.20
2023-03-29T14:28:20.931Z,59.20
2023-03-29T14:30:49.769Z,60.20
2023-03-29T14:33:25.851Z,59.30
2023-03-29T14:35:55.015Z,61.30
2023-03-29T14:38:23.498Z,59.90
2023-03-29T14:40:51.321Z,61.30
2023-03-29T14:43:21.996Z,61.10
2023-03-29T14:45:49.930Z,62.60
2023-03-29T14:48:17.787Z,62.50
2023-03-29T14:50:45.582Z,62.60
2023-03-29T14:53:18.338Z,63.70
2023-03-29T14:55:46.720Z,67.30
2023-03-29T14:58:17.799Z,65.10
2023-03-29T15:00:45.548Z,66.80
2023-03-29T15:03:14.174Z,66.80
2023-03-29T15:05:42.449Z,67.20
2023-03-29T15:08:14.872Z,67.90
2023-03-29T15:10:45.028Z,70.70
2023-03-29T15:13:16.360Z,71.80
2023-03-29T15:15:44.065Z,72.30
2023-03-29T15:18:12.983Z,72.10
2023-03-29T15:20:41.166Z,73.10
2023-03-29T15:23:22.105Z,72.80
2023-03-29T15:25:53.963Z,76.00
2023-03-29T15:28:28.232Z,77.60
2023-03-29T15:31:07.289Z,75.30
2023-03-29T15:33:36.809Z,76.20
2023-03-29T15:36:05.383Z,78.50
2023-03-29T15:38:43.023Z,80.00
2023-03-29T15:41:14.339Z,78.70
2023-03-29T15:43:42.644Z,80.70
2023-03-29T15:46:12.072Z,80.90
2023-03-29T15:48:39.757Z,82.80
2023-03-29T15:51:07.659Z,82.20
2023-03-29T15:53:36.168Z,84.90
2023-03-29T15:56:04.417Z,84.60
2023-03-29T15:58:34.436Z,85.60
2023-03-29T16:01:11.114Z,86.00
2023-03-29T16:03:38.980Z,86.50
2023-03-29T16:06:07.641Z,85.30
2023-03-29T16:08:35.831Z,86.00
2023-03-29T16:11:04.983Z,85.80
2023-03-29T16:13:34.081Z,85.90
2023-03-29T16:16:02.015Z,87.50
2023-03-29T16:18:29.989Z,86.60
2023-03-29T16:20:59.251Z,87.80
2023-03-29T16:23:26.943Z,87.30
2023-03-29T16:25:54.628Z,87.20
2023-03-29T16:28:22.419Z,87.90
2023-03-29T16:30:51.566Z,87.40
2023-03-29T16:33:19.239Z,87.40
2023-03-29T16:35:47.231Z,87.40
2023-03-29T16:38:14.956Z,87.10
2023-03-29T16:40:43.612Z,87.20
2023-03-29T16:43:14.233Z,87.50
2023-03-29T16:45:41.974Z,88.60
2023-03-29T16:48:12.990Z,87.60
2023-03-29T16:50:40.857Z,87.90
2023-03-29T16:53:08.745Z,88.40
2023-03-29T16:55:37.910Z,88.70
2023-03-29T16:58:05.834Z,87.70
2023-03-29T17:00:33.650Z,87.90
2023-03-29T17:03:02.148Z,88.00
2023-03-29T17:05:31.756Z,88.10
2023-03-29T17:07:59.407Z,89.20
2023-03-29T17:10:27.059Z,88.00
2023-03-29T17:12:54.704Z,88.00
2023-03-29T17:15:22.509Z,88.10
2023-03-29T17:17:50.216Z,87.90
2023-03-29T17:20:18.112Z,88.10
2023-03-29T17:22:48.956Z,88.30
2023-03-29T17:25:16.759Z,88.90
2023-03-29T17:27:45.369Z,88.80
2023-03-29T17:30:13.644Z,89.40
2023-03-29T17:32:42.893Z,88.30
2023-03-29T17:35:10.804Z,88.90
2023-03-29T17:37:38.538Z,88.10
2023-03-29T17:40:11.235Z,87.40
2023-03-29T17:42:38.924Z,87.00
2023-03-29T17:45:08.100Z,86.90
2023-03-29T17:47:35.895Z,86.80
2023-03-29T17:50:03.595Z,87.10
2023-03-29T17:52:31.293Z,86.80
2023-03-29T17:54:58.969Z,86.50
2023-03-29T17:57:28.038Z,87.50
2023-03-29T17:59:55.994Z,86.30
2023-03-29T18:02:24.590Z,86.90
2023-03-29T18:04:52.637Z,86.20
2023-03-29T18:07:20.324Z,86.50
2023-03-29T18:09:48.018Z,86.00
2023-03-29T18:12:16.617Z,85.50
2023-03-29T18:14:45.625Z,85.40
2023-03-29T18:17:13.293Z,85.10
2023-03-29T18:19:40.990Z,85.20
2023-03-29T18:22:08.658Z,84.80
2023-03-29T18:24:36.389Z,84.70
2023-03-29T18:27:04.100Z,85.00
2023-03-29T18:29:31.767Z,84.60
2023-03-29T18:32:02.822Z,84.70
2023-03-29T18:34:31.176Z,84.40
2023-03-29T18:36:58.840Z,84.30
2023-03-29T18:39:27.225Z,84.20
2023-03-29T18:41:54.928Z,84.00
2023-03-29T18:44:27.115Z,84.00
2023-03-29T18:46:55.277Z,83.90
2023-03-29T18:49:24.885Z,83.80
2023-03-29T18:51:54.216Z,83.90
2023-03-29T18:54:21.952Z,83.60
2023-03-29T18:56:49.607Z,83.80
2023-03-29T18:59:17.533Z,84.10
2023-03-29T19:01:45.220Z,84.20
2023-03-29T19:04:14.260Z,84.10
2023-03-29T19:06:43.252Z,84.20
2023-03-29T19:09:10.901Z,84.50
2023-03-29T19:11:38.629Z,84.30
2023-03-29T19:14:08.779Z,84.30
2023-03-29T19:16:36.782Z,84.40
2023-03-29T19:19:05.605Z,84.60
2023-03-29T19:21:33.365Z,84.60
2023-03-29T19:24:04.945Z,84.50
2023-03-29T19:26:33.418Z,84.70
2023-03-29T19:29:01.256Z,84.70
2023-03-29T19:31:28.962Z,84.60
2023-03-29T19:33:56.665Z,84.60
2023-03-29T19:36:24.372Z,84.50
2023-03-29T19:38:53.965Z,84.50
2023-03-29T19:41:23.943Z,84.40
2023-03-29T19:43:51.597Z,84.40
2023-03-29T19:46:20.323Z,84.30
2023-03-29T19:48:48.061Z,84.30
2023-03-29T19:51:15.725Z,84.30
2023-03-29T19:53:43.400Z,84.20
2023-03-29T19:56:13.114Z,84.10
2023-03-29T19:58:42.118Z,84.20
2023-03-29T20:01:09.781Z,84.20
2023-03-29T20:03:37.525Z,84.00
2023-03-29T20:06:05.518Z,84.00
2023-03-29T20:08:33.206Z,83.90
2023-03-29T20:11:02.807Z,83.80
2023-03-29T20:13:38.353Z,83.80
2023-03-29T20:16:08.666Z,83.70
2023-03-29T20:18:38.126Z,83.70
2023-03-29T20:21:05.994Z,83.70
2023-03-29T20:23:33.832Z,83.60
2023-03-29T20:26:01.500Z,83.60
2023-03-29T20:28:29.213Z,83.40
2023-03-29T20:30:56.874Z,83.50
2023-03-29T20:33:26.109Z,83.60
2023-03-29T20:35:53.897Z,83.70
2023-03-29T20:38:21.841Z,83.50
2023-03-29T20:40:49.868Z,83.60
2023-03-29T20:43:20.022Z,83.70
2023-03-29T20:45:52.723Z,83.80
2023-03-29T20:48:22.845Z,84.00
2023-03-29T20:50:52.119Z,84.30
2023-03-29T20:53:20.337Z,84.60
2023-03-29T20:55:48.338Z,84.90
2023-03-29T20:58:16.480Z,85.20
2023-03-29T21:00:44.461Z,85.50
2023-03-29T21:03:12.213Z,85.70
2023-03-29T21:05:39.926Z,85.90
2023-03-29T21:08:09.218Z,86.50
2023-03-29T21:10:38.642Z,87.70
2023-03-29T21:13:06.288Z,86.80
2023-03-29T21:15:33.982Z,87.00
2023-03-29T21:18:01.879Z,86.90
2023-03-29T21:20:29.796Z,87.20
2023-03-29T21:22:57.536Z,87.30
2023-03-29T21:25:26.555Z,87.40
2023-03-29T21:27:54.204Z,87.60
2023-03-29T21:30:21.847Z,87.40
2023-03-29T21:32:49.581Z,87.50
2023-03-29T21:35:17.448Z,87.50
2023-03-29T21:37:45.178Z,87.60
2023-03-29T21:40:14.416Z,87.50
2023-03-29T21:42:43.471Z,87.20
2023-03-29T21:45:11.852Z,87.30
2023-03-29T21:47:39.689Z,86.90
2023-03-29T21:50:08.211Z,86.90
2023-03-29T21:52:37.614Z,86.50
2023-03-29T21:55:05.722Z,86.50
2023-03-29T21:57:33.483Z,86.10
2023-03-29T22:00:02.534Z,85.80
2023-03-29T22:02:32.959Z,85.50
2023-03-29T22:05:00.689Z,85.20
2023-03-29T22:07:28.574Z,85.10
2023-03-29T22:09:58.551Z,85.70
2023-03-29T22:12:26.977Z,84.50
2023-03-29T22:14:54.671Z,84.00
2023-03-29T22:17:26.623Z,83.70
2023-03-29T22:19:56.572Z,83.30
2023-03-29T22:22:24.358Z,83.10
2023-03-29T22:24:53.501Z,82.50
2023-03-29T22:27:21.276Z,81.80
2023-03-29T22:29:49.004Z,81.80
2023-03-29T22:32:16.807Z,81.60
2023-03-29T22:34:46.025Z,81.20
2023-03-29T22:37:13.670Z,80.30
2023-03-29T22:39:41.336Z,80.60
2023-03-29T22:42:08.992Z,80.00
2023-03-29T22:44:36.862Z,79.60
2023-03-29T22:47:04.534Z,78.70
2023-03-29T22:49:32.186Z,78.50
2023-03-29T22:52:01.448Z,77.90
2023-03-29T22:54:29.402Z,77.70
2023-03-29T22:56:57.139Z,77.50
2023-03-29T22:59:25.056Z,77.00
2023-03-29T23:01:52.881Z,76.70
2023-03-29T23:04:20.670Z,76.20
2023-03-29T23:06:48.343Z,75.60
2023-03-29T23:09:17.309Z,75.20
2023-03-29T23:11:45.018Z,74.70
2023-03-29T23:14:12.728Z,74.30
2023-03-29T23:16:40.422Z,74.40
2023-03-29T23:19:08.082Z,73.30
2023-03-29T23:21:37.010Z,73.10
2023-03-29T23:24:05.019Z,72.90
2023-03-29T23:26:35.622Z,72.40
2023-03-29T23:29:03.997Z,71.30
2023-03-29T23:31:33.700Z,71.20
2023-03-29T23:34:03.088Z,70.90
2023-03-29T23:36:31.915Z,70.40
2023-03-29T23:38:59.678Z,70.00
2023-03-29T23:41:28.231Z,68.70
2023-03-29T23:43:57.500Z,68.70
2023-03-29T23:46:25.954Z,67.90
2023-03-29T23:48:53.666Z,68.00
2023-03-29T23:51:23.401Z,67.30
2023-03-29T23:53:51.648Z,67.40
2023-03-29T23:56:19.354Z,67.10
2023-03-29T23:58:47.116Z,66.40
